首页
METAR-TAF:

METAR-TAF

机场 :

夏洛特道格拉斯國際機場

夏洛特, 北卡罗来纳州, 美国

纬度: 35-12-48N, 经度: 080-56-55W, 海拔: 228米

当前天气观测

该预报发布于1小时和13分钟前的20:52 UTC
风速16节,风向西南,有时为23节阵风
温度 28°C
湿度 48%
气压 1014 hPa
能見度: 16.1公里
少量云层高于5000英尺
散云层高于22000英尺
多云层高于25000英尺

METAR: KCLT 292052Z 22016G23KT 10SM FEW050 SCT220 BKN250 28/16 A2993 RMK AO2 PK WND 23028/2014 SLP126 T02830156 56014

时间: 18:05 (22:05 UTC)

预报

该预报发布于2小时和7分钟前的19:58 UTC
预报有效从29日的 20点(UTC)到 30日的 24点(UTC)
风速18节,风向西南,有时为27节阵风
能見度: 10公里
散云层高于5000英尺
多云层高于25000英尺
附近有阵雨
从 29日的 2200点(UTC)
风速14节,风向西转西南,有时为24节阵风
能見度: 10公里
多云层高于25000英尺
从 30日的 0000点(UTC)
风速9节,风向西转西南
能見度: 10公里
散云层高于25000英尺
从 30日的 0400点(UTC)
风速5节,风向西转西北
能見度: 10公里
散云层高于15000英尺
多云层高于20000英尺

TAF: KCLT 291958Z 2920/3024 23018G27KT P6SM VCSH SCT050 BKN250 FM292200 24014G24KT P6SM BKN250 FM300000 24009KT P6SM SCT250 FM300400 30005KT P6SM SCT150 BKN200

超过4000个机场的气象观测和天气预报(METAR&TAF报告)。

可查询的气象台以黄色和红色小点在地图上表示。

将鼠标移到小点上方,可查看气象台名称。

然后点击查看天气观测和预报。

如需切换地图:点击带黑十字的绿色按钮放大地图;点击带横线的绿色按钮缩小地图;或者点击绿色箭头查看邻近地区的地图。


METAR-TAF: